Time;durP1;ratioP1;P1;durP2;ratioP2;P2;SDS_P1;SDS_P2;PMS_P1;PMS_P2;Temp;Humidity;BMP_temperature;BMP_pressure;BME280_temperature;BME280_humidity;BME280_pressure;Samples;Min_cycle;Max_cycle;Signal;HPM_P1;HPM_P2
2023/07/10 00:00:57;;;;;;;44.40;21.85;;;18.70;99.90;;;;;;5095962;28;20075;-64
2023/07/10 00:03:22;;;;;;;35.95;21.88;;;18.70;99.90;;;;;;5096293;28;20099;-63
2023/07/10 00:05:48;;;;;;;41.75;22.83;;;18.70;99.90;;;;;;5095751;28;20475;-63
2023/07/10 00:08:14;;;;;;;43.03;21.92;;;18.70;99.90;;;;;;5093102;28;20042;-66
2023/07/10 00:10:39;;;;;;;44.67;21.45;;;18.70;99.90;;;;;;5080615;28;20563;-65
2023/07/10 00:13:05;;;;;;;37.00;21.70;;;18.70;99.90;;;;;;5093932;28;20036;-65
2023/07/10 00:15:31;;;;;;;45.17;22.17;;;18.70;99.90;;;;;;5099001;28;20078;-63
2023/07/10 00:17:56;;;;;;;39.88;20.63;;;18.70;99.90;;;;;;5082000;28;20561;-65
2023/07/10 00:20:26;;;;;;;39.72;22.05;;;18.70;99.90;;;;;;5098011;28;20039;-63
2023/07/10 00:22:52;;;;;;;45.80;21.95;;;18.70;99.90;;;;;;5096679;28;20041;-64
2023/07/10 00:25:18;;;;;;;41.15;22.17;;;18.70;99.90;;;;;;5095858;28;20713;-64
2023/07/10 00:27:45;;;;;;;38.70;21.70;;;18.70;99.90;;;;;;5101128;28;20180;-63
2023/07/10 00:30:20;;;;;;;42.67;21.02;;;18.70;99.90;;;;;;5098008;28;20028;-65
2023/07/10 00:32:47;;;;;;;39.40;21.17;;;18.70;99.90;;;;;;5098050;28;20050;-64
2023/07/10 00:35:17;;;;;;;42.88;23.20;;;18.70;99.90;;;;;;5094524;28;20036;-63
2023/07/10 00:37:49;;;;;;;50.58;23.60;;;18.70;99.90;;;;;;5092009;28;20040;-63
2023/07/10 00:40:22;;;;;;;40.63;22.73;;;18.70;99.90;;;;;;5095388;28;20615;-64
2023/07/10 00:42:56;;;;;;;43.55;23.35;;;18.70;99.90;;;;;;5094173;28;20517;-65
2023/07/10 00:45:22;;;;;;;46.10;22.50;;;18.70;99.90;;;;;;5097020;28;20566;-64
2023/07/10 00:48:12;;;;;;;35.78;22.75;;;18.70;99.90;;;;;;5092970;28;20114;-65
2023/07/10 00:50:45;;;;;;;47.78;23.10;;;18.70;99.90;;;;;;5103969;28;20047;-67
2023/07/10 00:53:34;;;;;;;42.58;23.02;;;18.70;99.90;;;;;;5103606;28;20127;-66
2023/07/10 00:56:01;;;;;;;48.65;23.10;;;18.70;99.90;;;;;;5104422;28;20498;-65
2023/07/10 00:58:41;;;;;;;45.95;23.45;;;18.70;99.90;;;;;;5106067;28;20059;-65
2023/07/10 01:01:19;;;;;;;38.97;23.63;;;18.60;99.90;;;;;;5103778;28;20132;-65
2023/07/10 01:03:46;;;;;;;48.17;23.92;;;18.70;99.90;;;;;;5104221;28;20048;-64
2023/07/10 01:06:18;;;;;;;48.40;24.20;;;18.60;99.90;;;;;;5104147;28;20520;-67
2023/07/10 01:08:48;;;;;;;40.85;24.65;;;18.60;99.90;;;;;;5104359;28;20039;-67
2023/07/10 01:11:16;;;;;;;37.88;23.73;;;18.60;99.90;;;;;;5105662;28;20040;-65
2023/07/10 01:13:45;;;;;;;52.33;26.85;;;18.60;99.90;;;;;;5104291;28;20517;-64
2023/07/10 01:16:11;;;;;;;43.50;24.85;;;18.60;99.90;;;;;;5104200;28;20044;-66
2023/07/10 01:18:39;;;;;;;53.58;27.20;;;18.60;99.90;;;;;;5103478;28;20525;-66
2023/07/10 01:21:07;;;;;;;47.95;26.83;;;18.60;99.90;;;;;;5087448;28;20043;-66
2023/07/10 01:23:33;;;;;;;53.63;27.15;;;18.60;99.90;;;;;;5104941;28;20262;-67
2023/07/10 01:26:00;;;;;;;52.88;27.85;;;18.60;99.90;;;;;;5103380;28;20327;-66
2023/07/10 01:28:27;;;;;;;52.88;29.42;;;18.60;99.90;;;;;;5104323;28;20031;-67
2023/07/10 01:30:55;;;;;;;54.58;28.50;;;18.60;99.90;;;;;;5086792;28;20118;-64
2023/07/10 01:33:26;;;;;;;61.75;31.38;;;18.60;99.90;;;;;;5090811;28;20063;-67
2023/07/10 01:35:55;;;;;;;64.53;31.45;;;18.60;99.90;;;;;;5087307;28;20048;-68
2023/07/10 01:38:27;;;;;;;62.33;33.17;;;18.60;99.90;;;;;;5102947;28;20040;-67
2023/07/10 01:40:55;;;;;;;77.63;34.53;;;18.60;99.90;;;;;;5086514;28;20188;-67
2023/07/10 01:43:21;;;;;;;77.30;35.97;;;18.50;99.90;;;;;;5103611;28;20511;-65
2023/07/10 01:45:49;;;;;;;79.68;38.78;;;18.50;99.90;;;;;;5103849;28;20046;-67
2023/07/10 01:48:17;;;;;;;75.05;38.63;;;18.50;99.90;;;;;;5086983;28;20046;-68
2023/07/10 01:50:43;;;;;;;87.78;39.65;;;18.50;99.90;;;;;;5105286;28;20035;-67
2023/07/10 01:53:10;;;;;;;82.15;38.60;;;18.50;99.90;;;;;;5102257;28;20709;-67
2023/07/10 01:55:43;;;;;;;73.13;37.60;;;18.50;99.90;;;;;;5085340;28;20858;-68
2023/07/10 01:58:13;;;;;;;81.68;38.42;;;18.50;99.90;;;;;;5103764;28;20123;-67
2023/07/10 02:00:40;;;;;;;72.90;38.33;;;18.40;99.90;;;;;;5087709;27;20146;-67
2023/07/10 02:03:06;;;;;;;76.28;37.33;;;18.40;99.90;;;;;;5106709;27;20055;-67
2023/07/10 02:05:32;;;;;;;81.75;37.83;;;18.40;99.90;;;;;;5107693;27;20047;-66
2023/07/10 02:07:58;;;;;;;73.95;36.25;;;18.40;99.90;;;;;;5089121;27;20043;-68
2023/07/10 02:10:24;;;;;;;81.63;36.08;;;18.40;99.90;;;;;;5107253;27;20038;-68
2023/07/10 02:12:50;;;;;;;67.47;35.17;;;18.40;99.90;;;;;;5105691;27;20039;-67
2023/07/10 02:15:15;;;;;;;65.82;36.20;;;18.40;99.90;;;;;;5105525;27;20062;-67
2023/07/10 02:17:41;;;;;;;66.45;34.25;;;18.40;99.90;;;;;;5106826;27;20050;-68
2023/07/10 02:20:07;;;;;;;60.83;33.38;;;18.40;99.90;;;;;;5124163;27;20061;-68
2023/07/10 02:22:33;;;;;;;63.20;34.92;;;18.40;99.90;;;;;;5104773;27;20130;-66
2023/07/10 02:24:58;;;;;;;67.05;34.17;;;18.40;99.90;;;;;;5125127;27;20691;-67
2023/07/10 02:27:24;;;;;;;65.47;34.13;;;18.40;99.90;;;;;;5087999;27;20038;-67
2023/07/10 02:29:49;;;;;;;69.97;35.28;;;18.40;99.90;;;;;;5123909;27;20035;-67
2023/07/10 02:32:15;;;;;;;68.22;36.72;;;18.30;99.90;;;;;;5106016;27;20038;-65
2023/07/10 02:34:41;;;;;;;65.90;36.38;;;18.30;99.90;;;;;;5106112;27;20043;-65
2023/07/10 02:37:06;;;;;;;66.35;35.17;;;18.40;99.90;;;;;;5104764;28;20054;-67
2023/07/10 02:39:32;;;;;;;60.67;35.17;;;18.40;99.90;;;;;;5106223;27;20184;-66
2023/07/10 02:41:57;;;;;;;67.20;34.50;;;18.30;99.90;;;;;;5105443;27;20550;-65
2023/07/10 02:44:23;;;;;;;62.60;35.95;;;18.30;99.90;;;;;;5086985;27;20058;-65
2023/07/10 02:46:48;;;;;;;64.82;33.88;;;18.30;99.90;;;;;;5124984;27;20043;-66
2023/07/10 02:49:14;;;;;;;59.58;34.38;;;18.30;99.90;;;;;;5106148;27;20069;-66
2023/07/10 02:51:40;;;;;;;53.40;33.30;;;18.30;99.90;;;;;;5124476;27;20039;-66
2023/07/10 02:54:10;;;;;;;57.28;34.17;;;18.20;99.90;;;;;;5106012;28;20050;-65
2023/07/10 02:56:36;;;;;;;57.35;32.53;;;18.20;99.90;;;;;;5105452;28;20363;-65
2023/07/10 02:59:01;;;;;;;55.33;32.55;;;18.20;99.90;;;;;;5106308;28;20083;-66
2023/07/10 03:01:27;;;;;;;60.55;33.15;;;18.20;99.90;;;;;;5105384;28;20058;-64
2023/07/10 03:03:53;;;;;;;56.97;32.42;;;18.20;99.90;;;;;;5104873;28;20046;-65
2023/07/10 03:06:20;;;;;;;55.50;30.83;;;18.20;99.90;;;;;;5104949;28;20478;-65
2023/07/10 03:08:47;;;;;;;55.28;31.70;;;18.20;99.90;;;;;;5105910;28;20050;-65
2023/07/10 03:11:13;;;;;;;55.33;30.33;;;18.20;99.90;;;;;;5104346;28;20506;-65
2023/07/10 03:13:39;;;;;;;51.15;29.88;;;18.20;99.90;;;;;;5123930;28;20440;-65
2023/07/10 03:16:10;;;;;;;56.40;31.05;;;18.20;99.90;;;;;;5123933;28;20035;-64
2023/07/10 03:18:37;;;;;;;48.38;27.92;;;18.20;99.90;;;;;;5105849;28;20139;-64
2023/07/10 03:21:03;;;;;;;50.80;29.80;;;18.20;99.90;;;;;;5105077;28;20047;-65
2023/07/10 03:23:29;;;;;;;38.78;24.40;;;18.20;99.90;;;;;;5104405;28;20235;-64
2023/07/10 03:25:55;;;;;;;42.00;23.63;;;18.20;99.90;;;;;;5104282;28;20162;-65
2023/07/10 03:28:22;;;;;;;36.67;22.38;;;18.20;99.90;;;;;;5106150;28;20060;-65
2023/07/10 03:30:51;;;;;;;40.13;23.52;;;18.10;99.90;;;;;;5075511;28;20410;-63
2023/07/10 03:33:17;;;;;;;36.35;22.38;;;18.10;99.90;;;;;;5087329;28;20038;-65
2023/07/10 03:35:48;;;;;;;34.78;23.75;;;18.10;99.90;;;;;;5124709;28;20031;-64
2023/07/10 03:38:14;;;;;;;33.83;21.23;;;18.10;99.90;;;;;;5123569;28;20471;-64
2023/07/10 03:40:51;;;;;;;37.08;21.20;;;18.10;99.90;;;;;;5123709;28;20061;-64
2023/07/10 03:43:17;;;;;;;36.17;22.05;;;18.10;99.90;;;;;;5122936;28;20074;-64
2023/07/10 03:45:43;;;;;;;38.97;23.10;;;18.10;99.90;;;;;;5105036;28;20082;-64
2023/07/10 03:48:08;;;;;;;41.05;25.38;;;18.10;99.90;;;;;;5088128;28;20054;-65
2023/07/10 03:50:34;;;;;;;38.60;24.83;;;18.00;99.90;;;;;;5106271;28;20562;-65
2023/07/10 03:53:00;;;;;;;39.05;23.60;;;18.10;99.90;;;;;;5104439;28;20043;-65
2023/07/10 03:55:26;;;;;;;42.08;24.08;;;18.10;99.90;;;;;;5105371;28;20096;-63
2023/07/10 03:57:52;;;;;;;38.53;25.60;;;18.10;99.90;;;;;;5123411;28;20524;-64
2023/07/10 04:00:17;;;;;;;39.47;24.20;;;18.10;99.90;;;;;;5104858;28;20394;-63
2023/07/10 04:02:43;;;;;;;37.70;24.67;;;18.10;99.90;;;;;;5105644;28;20055;-63
2023/07/10 04:05:08;;;;;;;41.17;25.67;;;18.10;99.90;;;;;;5124146;28;20092;-64
2023/07/10 04:07:34;;;;;;;39.30;26.75;;;18.10;99.90;;;;;;5123289;28;20023;-64
2023/07/10 04:10:00;;;;;;;44.25;27.63;;;18.10;99.90;;;;;;5127319;27;20049;-64
2023/07/10 04:12:25;;;;;;;43.05;28.10;;;18.10;99.90;;;;;;5107333;27;20039;-64
2023/07/10 04:14:51;;;;;;;45.60;29.25;;;18.10;99.90;;;;;;5108719;27;20118;-64
2023/07/10 04:17:17;;;;;;;47.10;29.23;;;18.10;99.90;;;;;;5109720;27;20504;-64
2023/07/10 04:19:45;;;;;;;46.38;28.02;;;18.10;99.90;;;;;;5109473;27;20470;-62
2023/07/10 04:22:10;;;;;;;50.33;29.77;;;18.10;99.90;;;;;;5126324;27;20066;-64
2023/07/10 04:24:36;;;;;;;47.08;28.80;;;18.10;99.90;;;;;;5109268;27;20043;-64
2023/07/10 04:27:02;;;;;;;47.63;30.17;;;18.10;99.90;;;;;;5127105;27;20404;-63
2023/07/10 04:29:27;;;;;;;47.00;28.88;;;18.10;99.90;;;;;;5091680;27;20461;-64
2023/07/10 04:31:53;;;;;;;45.38;29.00;;;18.10;99.90;;;;;;5127818;27;20031;-64
2023/07/10 04:34:19;;;;;;;42.80;26.85;;;18.10;99.90;;;;;;5108914;27;20051;-63
2023/07/10 04:36:47;;;;;;;43.97;27.27;;;18.10;99.90;;;;;;5126797;27;20103;-64
2023/07/10 04:39:13;;;;;;;38.70;25.70;;;18.10;99.90;;;;;;5108626;27;20096;-63
2023/07/10 04:41:39;;;;;;;39.80;27.10;;;18.10;99.90;;;;;;5126220;27;20475;-63
2023/07/10 04:44:05;;;;;;;40.58;26.83;;;18.10;99.90;;;;;;5125735;27;20082;-63
2023/07/10 04:46:31;;;;;;;37.03;25.98;;;18.10;99.90;;;;;;5126275;27;20257;-64
2023/07/10 04:48:57;;;;;;;37.50;25.55;;;18.10;99.90;;;;;;5091731;27;20050;-63
2023/07/10 04:51:23;;;;;;;43.08;26.88;;;18.10;99.90;;;;;;5107856;27;20083;-66
2023/07/10 04:53:49;;;;;;;36.60;24.73;;;18.20;99.90;;;;;;5107928;27;20046;-63
2023/07/10 04:56:16;;;;;;;34.17;23.45;;;18.20;99.90;;;;;;5126422;27;20043;-64
2023/07/10 04:58:53;;;;;;;33.40;22.80;;;18.20;99.90;;;;;;5126829;27;20047;-63
2023/07/10 05:01:21;;;;;;;31.08;20.98;;;18.20;99.90;;;;;;5125814;27;20047;-62
2023/07/10 05:03:48;;;;;;;30.23;20.40;;;18.20;99.90;;;;;;5126251;27;20031;-64
2023/07/10 05:06:14;;;;;;;25.80;18.75;;;18.20;99.90;;;;;;5126135;27;20066;-66
2023/07/10 05:08:39;;;;;;;26.35;18.88;;;18.20;99.90;;;;;;5127567;27;20089;-66
2023/07/10 05:11:05;;;;;;;33.80;18.58;;;18.20;99.90;;;;;;5089871;27;20088;-64
2023/07/10 05:13:31;;;;;;;30.67;19.55;;;18.20;99.90;;;;;;5090515;27;20045;-63
2023/07/10 05:15:58;;;;;;;26.30;16.35;;;18.20;99.90;;;;;;5104832;27;20127;-64
2023/07/10 05:18:25;;;;;;;24.02;15.13;;;18.20;99.90;;;;;;5089513;27;20042;-62
2023/07/10 05:20:52;;;;;;;22.35;14.32;;;18.20;99.90;;;;;;5126602;27;20062;-64
2023/07/10 05:23:18;;;;;;;19.05;12.65;;;18.20;99.90;;;;;;5106015;27;20043;-65
2023/07/10 05:26:09;;;;;;;21.67;12.50;;;18.10;99.90;;;;;;5122777;27;20054;-64
2023/07/10 05:28:35;;;;;;;19.50;12.48;;;18.10;99.90;;;;;;5125786;27;20753;-65
2023/07/10 05:31:02;;;;;;;23.40;11.43;;;18.10;99.90;;;;;;5107190;27;20118;-65
2023/07/10 05:33:29;;;;;;;18.00;11.95;;;18.10;99.90;;;;;;5074510;27;20035;-65
2023/07/10 05:36:03;;;;;;;16.85;11.98;;;18.10;99.90;;;;;;5125828;27;20124;-62
2023/07/10 05:38:31;;;;;;;15.13;8.70;;;18.10;99.90;;;;;;5103909;27;20043;-64
2023/07/10 05:40:57;;;;;;;17.95;9.30;;;18.10;99.90;;;;;;5086391;28;20051;-62
2023/07/10 05:43:23;;;;;;;13.73;8.50;;;18.10;99.90;;;;;;5086556;28;20101;-64
2023/07/10 05:45:51;;;;;;;15.13;8.45;;;18.10;99.90;;;;;;5115152;27;20035;-64
2023/07/10 05:48:17;;;;;;;14.43;8.70;;;18.10;99.90;;;;;;5112121;27;20087;-63
2023/07/10 05:50:44;;;;;;;16.08;7.78;;;18.10;99.90;;;;;;5087439;27;20713;-64
2023/07/10 05:53:09;;;;;;;16.35;7.57;;;18.10;99.90;;;;;;5098340;27;20432;-64
2023/07/10 05:55:35;;;;;;;17.35;8.23;;;18.10;99.90;;;;;;5113972;27;20035;-61
2023/07/10 05:58:00;;;;;;;14.20;7.60;;;18.10;99.90;;;;;;5097603;27;20031;-64
2023/07/10 06:00:26;;;;;;;15.23;8.68;;;18.20;99.90;;;;;;5097996;27;20101;-65
2023/07/10 06:02:52;;;;;;;13.55;7.47;;;18.20;99.90;;;;;;5102965;27;20641;-62
2023/07/10 06:05:18;;;;;;;12.02;7.00;;;18.20;99.90;;;;;;5089374;28;20490;-64
2023/07/10 06:07:44;;;;;;;13.52;7.60;;;18.20;99.90;;;;;;5115206;27;20035;-66
2023/07/10 06:10:10;;;;;;;14.50;7.97;;;18.20;99.90;;;;;;5104876;27;20450;-67
2023/07/10 06:12:35;;;;;;;12.98;7.00;;;18.30;99.90;;;;;;5123273;27;20046;-67
2023/07/10 06:15:01;;;;;;;15.23;7.05;;;18.30;99.90;;;;;;5088467;27;20125;-67
2023/07/10 06:17:29;;;;;;;18.27;7.65;;;18.30;99.90;;;;;;5107295;27;20136;-65
2023/07/10 06:19:55;;;;;;;13.82;6.93;;;18.30;99.90;;;;;;5123929;27;20117;-66
2023/07/10 06:22:21;;;;;;;15.85;7.15;;;18.40;99.90;;;;;;5105433;27;20175;-66
2023/07/10 06:24:46;;;;;;;13.23;6.15;;;18.40;99.90;;;;;;5089656;27;20078;-65
2023/07/10 06:27:12;;;;;;;12.75;6.13;;;18.40;99.90;;;;;;5124228;27;20489;-66
2023/07/10 06:29:37;;;;;;;13.50;5.65;;;18.40;99.90;;;;;;5105746;27;20604;-66
2023/07/10 06:32:04;;;;;;;12.50;5.65;;;18.50;99.90;;;;;;5105601;27;20043;-66
2023/07/10 06:34:30;;;;;;;13.85;5.28;;;18.50;99.90;;;;;;5124123;27;20074;-66
2023/07/10 06:36:58;;;;;;;11.70;4.85;;;18.50;99.90;;;;;;5105867;27;20321;-66
2023/07/10 06:39:26;;;;;;;14.50;4.88;;;18.60;99.90;;;;;;5106237;27;20039;-67
2023/07/10 06:41:53;;;;;;;11.25;5.00;;;18.80;99.90;;;;;;5104155;27;20434;-66
2023/07/10 06:44:19;;;;;;;14.35;4.65;;;18.90;99.90;;;;;;5105992;27;20031;-63
2023/07/10 06:46:45;;;;;;;12.15;4.70;;;18.90;99.90;;;;;;5106434;27;20039;-63
2023/07/10 06:49:11;;;;;;;12.00;4.78;;;18.90;99.90;;;;;;5105963;28;20103;-68
2023/07/10 06:51:37;;;;;;;9.35;3.92;;;18.90;99.90;;;;;;5105669;27;20082;-65
2023/07/10 06:54:03;;;;;;;13.60;4.60;;;19.00;99.90;;;;;;5105758;27;20043;-65
2023/07/10 06:56:30;;;;;;;17.10;4.65;;;19.00;99.90;;;;;;5105554;27;20079;-68
2023/07/10 06:58:56;;;;;;;12.30;4.70;;;19.00;99.90;;;;;;5104958;28;20043;-63
2023/07/10 07:01:21;;;;;;;10.00;4.47;;;19.10;99.90;;;;;;5091808;28;20598;-64
2023/07/10 07:03:47;;;;;;;14.55;4.47;;;19.20;99.90;;;;;;5105601;28;20042;-64
2023/07/10 07:06:12;;;;;;;12.20;4.32;;;19.40;99.90;;;;;;5106052;28;20471;-66
2023/07/10 07:08:38;;;;;;;13.40;4.68;;;19.50;99.90;;;;;;5088933;28;20559;-65
2023/07/10 07:11:04;;;;;;;11.93;4.70;;;19.60;99.90;;;;;;5123949;28;20039;-65
2023/07/10 07:13:29;;;;;;;12.05;4.15;;;19.70;99.90;;;;;;5104749;28;20035;-65
2023/07/10 07:15:56;;;;;;;12.52;3.90;;;19.70;99.90;;;;;;5124247;28;20038;-64
2023/07/10 07:18:23;;;;;;;11.50;3.80;;;19.80;99.90;;;;;;5106005;28;20453;-66
2023/07/10 07:20:49;;;;;;;11.40;3.80;;;19.90;99.90;;;;;;5087996;28;20037;-65
2023/07/10 07:23:15;;;;;;;12.25;4.00;;;19.90;99.90;;;;;;5104295;28;20734;-67
2023/07/10 07:25:44;;;;;;;12.60;3.75;;;20.00;99.90;;;;;;5100425;28;20050;-64
2023/07/10 07:28:11;;;;;;;9.85;3.58;;;20.10;99.90;;;;;;5124468;28;20043;-66
2023/07/10 07:30:37;;;;;;;12.32;4.15;;;20.10;99.90;;;;;;5103936;28;20055;-67
2023/07/10 07:33:02;;;;;;;11.45;4.13;;;20.10;99.90;;;;;;5105113;28;20522;-64
2023/07/10 07:35:29;;;;;;;11.10;4.18;;;20.20;99.90;;;;;;5105962;28;20039;-65
2023/07/10 07:37:54;;;;;;;12.48;4.07;;;20.20;99.90;;;;;;5110084;28;20399;-65
2023/07/10 07:40:20;;;;;;;12.25;3.80;;;20.30;99.90;;;;;;5103644;28;20471;-65
2023/07/10 07:42:47;;;;;;;13.38;3.65;;;20.30;99.90;;;;;;5102915;28;20043;-69
2023/07/10 07:45:14;;;;;;;12.20;4.18;;;20.30;99.90;;;;;;5088491;28;20036;-65
2023/07/10 07:47:40;;;;;;;9.45;3.42;;;20.30;99.90;;;;;;5077483;27;20070;-65
2023/07/10 07:50:08;;;;;;;11.30;3.50;;;20.40;99.90;;;;;;5109425;27;20053;-65
2023/07/10 07:52:34;;;;;;;9.52;3.00;;;20.50;99.90;;;;;;5108716;27;20035;-65
2023/07/10 07:55:00;;;;;;;9.73;3.30;;;20.60;99.90;;;;;;5109575;27;20857;-64
2023/07/10 07:57:25;;;;;;;13.60;3.50;;;20.60;99.90;;;;;;5106617;27;20039;-64
2023/07/10 07:59:51;;;;;;;11.00;3.10;;;20.70;99.90;;;;;;5091429;27;20403;-63
2023/07/10 08:02:17;;;;;;;13.40;3.70;;;20.70;99.90;;;;;;5097338;27;20052;-63
2023/07/10 08:04:43;;;;;;;12.02;3.30;;;20.80;99.90;;;;;;5099276;27;20043;-63
2023/07/10 08:07:09;;;;;;;10.73;3.13;;;20.80;99.90;;;;;;5100446;27;20031;-64
2023/07/10 08:09:39;;;;;;;12.07;3.40;;;20.80;99.90;;;;;;5117742;27;20351;-63
2023/07/10 08:12:06;;;;;;;13.77;3.72;;;20.80;99.90;;;;;;5107776;27;20046;-65
2023/07/10 08:14:31;;;;;;;10.38;2.80;;;20.80;99.90;;;;;;5124514;27;20070;-65
2023/07/10 08:16:57;;;;;;;15.30;3.35;;;20.90;99.90;;;;;;5116006;27;20100;-71
2023/07/10 08:19:23;;;;;;;10.80;3.92;;;20.90;99.90;;;;;;5105749;27;20042;-64
2023/07/10 08:21:50;;;;;;;13.73;3.47;;;20.90;99.90;;;;;;5100833;27;20055;-65
2023/07/10 08:24:16;;;;;;;10.35;2.97;;;21.00;99.90;;;;;;5089672;28;20039;-66
2023/07/10 08:26:43;;;;;;;11.00;3.10;;;21.10;99.90;;;;;;5088454;28;20055;-69
2023/07/10 08:29:34;;;;;;;11.88;3.05;;;21.20;99.90;;;;;;5103326;27;20477;-64
2023/07/10 08:32:01;;;;;;;12.10;3.28;;;21.40;99.90;;;;;;5072006;28;20035;-63
2023/07/10 08:34:30;;;;;;;13.65;3.10;;;21.40;99.90;;;;;;5065549;28;20031;-69
2023/07/10 08:37:01;;;;;;;10.80;3.35;;;21.40;99.90;;;;;;5103846;27;20035;-63
2023/07/10 08:39:27;;;;;;;11.82;3.42;;;21.40;99.90;;;;;;5105165;27;20042;-67
2023/07/10 08:41:56;;;;;;;12.98;3.00;;;21.40;99.90;;;;;;5095844;27;20051;-69
2023/07/10 08:44:34;;;;;;;10.20;2.50;;;21.40;99.90;;;;;;5071174;28;20071;-67
2023/07/10 08:47:22;;;;;;;16.35;3.85;;;21.50;99.90;;;;;;5088850;28;20486;-63
2023/07/10 08:50:14;;;;;;;11.30;3.08;;;21.50;99.90;;;;;;5104465;27;20053;-64
2023/07/10 08:52:56;;;;;;;11.32;2.92;;;21.50;99.90;;;;;;5094700;27;20415;-64
2023/07/10 08:55:50;;;;;;;11.57;3.13;;;21.50;99.90;;;;;;5108039;27;20080;-63
2023/07/10 08:58:24;;;;;;;10.60;2.92;;;21.50;99.90;;;;;;5056887;27;20139;-66
2023/07/10 09:00:57;;;;;;;10.95;3.42;;;21.50;99.90;;;;;;5107907;27;20618;-64
2023/07/10 09:03:49;;;;;;;9.68;2.92;;;21.60;99.90;;;;;;5107775;27;20525;-60
2023/07/10 09:06:23;;;;;;;11.05;2.58;;;21.80;99.90;;;;;;5102667;27;20355;-65
2023/07/10 09:08:50;;;;;;;;;;;22.00;99.90;;;;;;5097348;27;20036;-64
2023/07/10 09:11:29;;;;;;;11.43;2.92;;;22.00;99.90;;;;;;5104812;27;19922;-66
2023/07/10 09:14:16;;;;;;;11.73;2.83;;;22.00;99.90;;;;;;5080676;27;20031;-63
2023/07/10 09:16:45;;;;;;;10.48;2.92;;;21.90;99.90;;;;;;5097778;27;20034;-65
2023/07/10 09:19:15;;;;;;;8.90;2.90;;;21.90;99.90;;;;;;5101743;27;20038;-63
2023/07/10 09:21:41;;;;;;;8.85;2.63;;;21.90;99.90;;;;;;5106254;27;20044;-64
2023/07/10 09:24:17;;;;;;;12.40;3.17;;;21.90;99.90;;;;;;5084428;27;20247;-67
2023/07/10 09:26:44;;;;;;;8.45;2.65;;;21.90;99.90;;;;;;5082598;28;20070;-63
2023/07/10 09:29:11;;;;;;;7.72;2.40;;;21.90;99.90;;;;;;5054363;28;20083;-65
2023/07/10 09:31:53;;;;;;;11.05;2.92;;;22.00;99.90;;;;;;5096682;27;20136;-64
2023/07/10 09:34:29;;;;;;;11.25;2.65;;;22.10;99.90;;;;;;5097613;27;20050;-65
2023/07/10 09:37:04;;;;;;;13.90;3.30;;;22.20;99.90;;;;;;5107914;27;20856;-65
2023/07/10 09:39:31;;;;;;;12.23;2.67;;;22.20;99.90;;;;;;5126540;27;20126;-64
2023/07/10 09:42:01;;;;;;;9.07;2.70;;;22.10;99.90;;;;;;5105063;27;20039;-64
2023/07/10 09:44:39;;;;;;;9.05;2.25;;;22.10;99.90;;;;;;5090166;27;20074;-68
2023/07/10 09:47:35;;;;;;;12.18;2.13;;;22.20;99.90;;;;;;5070243;28;20080;-65
2023/07/10 09:50:03;;;;;;;11.48;2.35;;;22.30;99.90;;;;;;5086877;28;20061;-63
2023/07/10 09:52:31;;;;;;;11.65;3.22;;;22.40;99.90;;;;;;5098037;27;20043;-66
2023/07/10 09:54:58;;;;;;;11.45;3.42;;;22.60;99.90;;;;;;5115438;27;20038;-65
2023/07/10 09:57:24;;;;;;;11.80;2.47;;;22.60;99.90;;;;;;5080623;27;20050;-64
2023/07/10 09:59:52;;;;;;;10.40;2.50;;;22.60;99.90;;;;;;5119020;27;20517;-66
2023/07/10 10:02:22;;;;;;;14.80;2.95;;;22.70;99.90;;;;;;5125236;27;20087;-68
2023/07/10 10:05:13;;;;;;;13.15;2.50;;;22.80;99.90;;;;;;5106012;27;20227;-70
2023/07/10 10:07:42;;;;;;;10.82;2.83;;;22.80;99.90;;;;;;5081663;27;20059;-68
2023/07/10 10:10:32;;;;;;;11.70;2.97;;;22.70;99.90;;;;;;5086542;27;20038;-69
2023/07/10 10:13:36;;;;;;;12.60;2.97;;;22.70;99.90;;;;;;5098177;27;20047;-66
2023/07/10 10:16:20;;;;;;;13.27;2.83;;;22.80;99.90;;;;;;5037659;27;20047;-64
2023/07/10 10:19:06;;;;;;;15.45;3.20;;;22.80;99.90;;;;;;5112906;27;20105;-65
2023/07/10 10:21:33;;;;;;;10.23;2.58;;;22.80;99.90;;;;;;5085992;27;20054;-67
2023/07/10 10:24:04;;;;;;;14.35;2.72;;;22.70;99.90;;;;;;5089895;27;20038;-69
2023/07/10 10:26:53;;;;;;;11.48;2.60;;;22.60;99.90;;;;;;5105417;27;20035;-65
2023/07/10 10:29:40;;;;;;;12.10;2.72;;;22.50;99.90;;;;;;5090245;27;20039;-68
2023/07/10 10:32:11;;;;;;;10.60;2.78;;;22.50;99.90;;;;;;5121044;27;20525;-63
2023/07/10 10:35:14;;;;;;;13.57;3.33;;;22.50;99.90;;;;;;5090137;27;20382;-65
2023/07/10 10:38:02;;;;;;;12.73;2.97;;;22.60;99.90;;;;;;5115963;27;20517;-68
2023/07/10 10:40:46;;;;;;;11.77;2.90;;;22.70;99.90;;;;;;5107164;27;20508;-62
2023/07/10 10:43:30;;;;;;;11.48;3.13;;;22.70;99.90;;;;;;5120450;27;20095;-65
2023/07/10 10:46:02;;;;;;;;;;;22.70;99.90;;;;;;5109410;27;20048;-68
2023/07/10 10:48:56;;;;;;;11.10;3.00;;;22.80;99.90;;;;;;5083149;27;19915;-70
2023/07/10 10:51:29;;;;;;;13.18;4.10;;;22.90;99.90;;;;;;5095850;27;20043;-69
2023/07/10 10:54:14;;;;;;;14.00;2.67;;;23.00;99.90;;;;;;5085794;28;20047;-67
2023/07/10 10:57:14;;;;;;;9.93;2.65;;;23.00;99.90;;;;;;5068364;28;20486;-67
2023/07/10 11:00:19;;;;;;;8.95;2.58;;;23.10;99.90;;;;;;5099913;28;20035;-62
2023/07/10 11:03:00;;;;;;;10.10;2.70;;;23.20;99.90;;;;;;5124172;27;20086;-65
2023/07/10 11:05:46;;;;;;;11.25;2.95;;;23.30;99.90;;;;;;5088957;28;20170;-65
2023/07/10 11:08:20;;;;;;;14.32;3.15;;;23.40;99.90;;;;;;5105201;28;20243;-67
2023/07/10 11:10:47;;;;;;;11.57;2.45;;;23.40;99.90;;;;;;5124152;28;20042;-64
2023/07/10 11:13:33;;;;;;;12.32;3.10;;;23.40;99.90;;;;;;5105912;28;20276;-67
2023/07/10 11:16:01;;;;;;;11.25;3.30;;;23.40;99.90;;;;;;5105621;28;20050;-69
2023/07/10 11:18:27;;;;;;;10.13;2.58;;;23.30;99.90;;;;;;5108032;27;20058;-64
2023/07/10 11:20:53;;;;;;;12.93;2.70;;;23.20;99.90;;;;;;5110605;27;20147;-63
2023/07/10 11:23:44;;;;;;;12.98;2.67;;;23.00;99.90;;;;;;5095879;27;20035;-66
2023/07/10 11:26:25;;;;;;;13.45;2.80;;;23.00;99.90;;;;;;5128681;27;20474;-67
2023/07/10 11:28:53;;;;;;;12.95;2.67;;;23.00;99.90;;;;;;5110013;27;20091;-64
2023/07/10 11:31:22;;;;;;;12.50;2.92;;;22.90;99.90;;;;;;5109368;27;20074;-69
2023/07/10 11:33:57;;;;;;;9.00;2.22;;;22.90;99.90;;;;;;5092190;27;20078;-67
2023/07/10 11:36:29;;;;;;;12.40;2.78;;;23.00;99.90;;;;;;5110058;27;20580;-65
2023/07/10 11:39:09;;;;;;;8.98;2.47;;;23.10;99.90;;;;;;5072947;28;20130;-70
2023/07/10 11:41:42;;;;;;;9.88;2.40;;;23.20;99.90;;;;;;5092685;28;20104;-68
2023/07/10 11:44:21;;;;;;;9.77;2.17;;;23.30;99.90;;;;;;5104245;27;20403;-66
2023/07/10 11:47:05;;;;;;;11.10;2.08;;;23.50;99.90;;;;;;5118896;27;20104;-67
2023/07/10 11:49:54;;;;;;;9.70;2.28;;;23.50;99.90;;;;;;5090324;28;20042;-68
2023/07/10 11:52:19;;;;;;;8.20;1.88;;;23.50;97.50;;;;;;5080961;27;20086;-69
2023/07/10 11:54:49;;;;;;;8.68;1.80;;;23.50;98.80;;;;;;5110098;27;20093;-65
2023/07/10 11:57:29;;;;;;;11.57;2.17;;;23.60;99.30;;;;;;5087579;27;20039;-66
2023/07/10 12:00:14;;;;;;;8.27;2.03;;;23.60;99.30;;;;;;5098088;27;20032;-65
2023/07/10 12:02:55;;;;;;;8.48;1.92;;;23.90;99.40;;;;;;5117634;27;20052;-68
2023/07/10 12:05:25;;;;;;;10.88;2.28;;;24.00;98.50;;;;;;5121048;27;20754;-70
2023/07/10 12:08:11;;;;;;;10.35;1.92;;;24.10;97.70;;;;;;5096932;27;20038;-67
2023/07/10 12:10:49;;;;;;;11.13;2.28;;;24.20;97.60;;;;;;5098588;27;20043;-69
2023/07/10 12:13:23;;;;;;;12.95;2.17;;;24.30;98.10;;;;;;5098590;27;20147;-69
2023/07/10 12:15:51;;;;;;;12.90;2.58;;;24.40;99.50;;;;;;5106857;27;20126;-68
2023/07/10 12:18:24;;;;;;;14.40;2.55;;;24.50;99.00;;;;;;5086037;27;20100;-68
2023/07/10 12:20:51;;;;;;;8.73;2.08;;;24.40;99.40;;;;;;5086572;27;20047;-65
2023/07/10 12:23:17;;;;;;;10.32;2.30;;;24.30;99.90;;;;;;5084128;27;20062;-68
2023/07/10 12:25:48;;;;;;;10.80;2.42;;;24.20;99.90;;;;;;5086180;27;20584;-67
2023/07/10 12:28:16;;;;;;;13.50;3.13;;;24.20;99.90;;;;;;5087592;27;20039;-69
2023/07/10 12:30:47;;;;;;;9.75;2.63;;;24.20;99.90;;;;;;5106276;27;20044;-66
2023/07/10 12:33:39;;;;;;;9.75;2.13;;;24.10;99.70;;;;;;5089940;27;20057;-67
2023/07/10 12:36:27;;;;;;;11.55;2.10;;;23.90;99.30;;;;;;5085900;27;20047;-66
2023/07/10 12:39:02;;;;;;;7.90;1.92;;;23.70;99.80;;;;;;5105974;27;20047;-67
2023/07/10 12:41:34;;;;;;;10.30;2.40;;;23.70;99.90;;;;;;5087747;27;20051;-66
2023/07/10 12:44:02;;;;;;;10.40;2.53;;;23.50;99.90;;;;;;5069794;27;20047;-68
2023/07/10 12:46:30;;;;;;;10.27;2.65;;;23.50;99.90;;;;;;5086505;27;20070;-65
2023/07/10 12:49:10;;;;;;;7.47;1.88;;;23.60;99.90;;;;;;5088662;27;20419;-65